createdAt,value
2023-03-21T00:01:07.492Z,35.30
2023-03-21T00:03:36.432Z,40.40
2023-03-21T00:06:09.267Z,38.00
2023-03-21T00:08:39.865Z,40.20
2023-03-21T00:11:10.714Z,39.00
2023-03-21T00:13:42.089Z,42.20
2023-03-21T00:16:21.391Z,40.80
2023-03-21T00:18:58.050Z,40.50
2023-03-21T00:22:03.607Z,38.10
2023-03-21T00:24:22.604Z,43.50
2023-03-21T00:26:51.555Z,40.40
2023-03-21T00:29:20.584Z,36.80
2023-03-21T00:31:49.712Z,40.20
2023-03-21T00:34:26.719Z,39.90
2023-03-21T00:37:06.974Z,35.30
2023-03-21T00:39:36.154Z,38.90
2023-03-21T00:42:05.593Z,40.20
2023-03-21T00:44:36.566Z,38.70
2023-03-21T00:47:07.755Z,35.20
2023-03-21T00:49:38.202Z,35.60
2023-03-21T00:52:20.136Z,37.90
2023-03-21T00:54:53.553Z,40.40
2023-03-21T00:57:37.553Z,35.50
2023-03-21T01:00:10.214Z,35.00
2023-03-21T01:03:02.559Z,32.90
2023-03-21T01:05:53.662Z,35.90
2023-03-21T01:08:28.211Z,34.20
2023-03-21T01:11:04.194Z,38.40
2023-03-21T01:13:36.291Z,37.20
2023-03-21T01:16:08.170Z,37.90
2023-03-21T01:18:39.507Z,41.90
2023-03-21T01:21:11.301Z,38.40
2023-03-21T01:23:42.153Z,41.90
2023-03-21T01:26:12.711Z,42.40
2023-03-21T01:28:43.357Z,40.90
2023-03-21T01:31:24.331Z,39.00
2023-03-21T01:33:53.307Z,41.80
2023-03-21T01:36:25.537Z,40.80
2023-03-21T01:38:55.217Z,40.90
2023-03-21T01:41:42.048Z,41.50
2023-03-21T01:44:17.012Z,39.30
2023-03-21T01:46:57.385Z,47.00
2023-03-21T01:49:38.939Z,43.70
2023-03-21T01:52:20.986Z,43.70
2023-03-21T01:54:57.565Z,37.20
2023-03-21T01:57:40.396Z,42.60
2023-03-21T02:00:15.591Z,44.30
2023-03-21T02:02:52.281Z,42.50
2023-03-21T02:05:28.423Z,44.50
2023-03-21T02:07:57.690Z,42.00
2023-03-21T02:10:27.344Z,43.70
2023-03-21T02:13:07.723Z,40.60
2023-03-21T02:15:38.596Z,42.90
2023-03-21T02:18:15.557Z,38.60
2023-03-21T02:21:10.536Z,43.90
2023-03-21T02:23:58.696Z,41.60
2023-03-21T02:26:57.962Z,40.20
2023-03-21T02:29:55.424Z,38.90
2023-03-21T02:32:38.096Z,39.80
2023-03-21T02:35:25.321Z,40.10
2023-03-21T02:38:00.761Z,37.30
2023-03-21T02:40:36.773Z,40.30
2023-03-21T02:43:22.598Z,41.20
2023-03-21T02:45:57.336Z,40.80
2023-03-21T02:48:44.834Z,40.30
2023-03-21T02:51:23.264Z,38.50
2023-03-21T02:54:23.772Z,44.00
2023-03-21T02:56:50.117Z,42.90
2023-03-21T02:59:21.471Z,40.90
2023-03-21T03:01:52.721Z,40.90
2023-03-21T03:04:23.868Z,43.40
2023-03-21T03:07:08.598Z,43.20
2023-03-21T03:09:49.242Z,44.10
2023-03-21T03:12:28.459Z,40.10
2023-03-21T03:15:06.168Z,41.50
2023-03-21T03:17:45.772Z,34.60
2023-03-21T03:20:24.737Z,33.60
2023-03-21T03:23:00.733Z,33.80
2023-03-21T03:25:43.074Z,34.50
2023-03-21T03:28:15.445Z,37.30
2023-03-21T03:31:00.917Z,38.10
2023-03-21T03:33:38.628Z,39.30
2023-03-21T03:36:28.370Z,37.90
2023-03-21T03:39:00.855Z,35.60
2023-03-21T03:41:33.160Z,35.10
2023-03-21T03:44:15.283Z,35.30
2023-03-21T03:46:51.886Z,35.20
2023-03-21T03:49:25.604Z,36.40
2023-03-21T03:51:59.706Z,36.80
2023-03-21T03:54:33.785Z,39.90
2023-03-21T03:57:03.098Z,38.00
2023-03-21T03:59:33.924Z,34.50
2023-03-21T04:02:03.208Z,39.30
2023-03-21T04:04:32.103Z,41.30
2023-03-21T04:07:03.150Z,36.50
2023-03-21T04:09:43.612Z,39.20
2023-03-21T04:12:12.984Z,37.30
2023-03-21T04:14:47.196Z,37.90
2023-03-21T04:17:16.978Z,41.10
2023-03-21T04:19:46.488Z,38.90
2023-03-21T04:22:16.780Z,38.80
2023-03-21T04:24:45.742Z,37.10
2023-03-21T04:27:14.662Z,38.00
2023-03-21T04:29:53.150Z,38.30
2023-03-21T04:32:35.855Z,40.70
2023-03-21T04:35:21.095Z,36.20
2023-03-21T04:38:02.983Z,39.90
2023-03-21T04:40:32.006Z,35.20
2023-03-21T04:43:01.415Z,40.80
2023-03-21T04:45:30.567Z,41.90
2023-03-21T04:47:59.559Z,39.00
2023-03-21T04:50:28.665Z,40.60
2023-03-21T04:52:57.562Z,43.70
2023-03-21T04:55:29.114Z,43.80
2023-03-21T04:57:58.178Z,39.90
2023-03-21T05:00:27.227Z,44.00
2023-03-21T05:02:57.377Z,44.30
2023-03-21T05:05:26.909Z,38.90
2023-03-21T05:07:55.917Z,39.10
2023-03-21T05:10:25.026Z,40.00
2023-03-21T05:12:54.024Z,43.20
2023-03-21T05:15:23.183Z,39.60
2023-03-21T05:17:52.353Z,40.80
2023-03-21T05:20:21.511Z,40.00
2023-03-21T05:22:51.544Z,45.30
2023-03-21T05:25:20.871Z,45.80
2023-03-21T05:27:53.723Z,47.10
2023-03-21T05:30:23.015Z,47.00
2023-03-21T05:32:52.126Z,44.70
2023-03-21T05:35:21.296Z,45.10
2023-03-21T05:37:50.246Z,43.20
2023-03-21T05:40:19.438Z,45.80
2023-03-21T05:42:48.629Z,41.90
2023-03-21T05:45:17.757Z,44.60
2023-03-21T05:47:46.804Z,48.00
2023-03-21T05:50:15.704Z,38.60
2023-03-21T05:52:44.637Z,40.20
2023-03-21T05:55:13.461Z,36.30
2023-03-21T05:57:42.498Z,38.80
2023-03-21T06:00:13.918Z,46.10
2023-03-21T06:02:43.049Z,36.80
2023-03-21T06:05:12.548Z,37.50
2023-03-21T06:07:41.433Z,37.70
2023-03-21T06:10:12.360Z,40.60
2023-03-21T06:12:42.729Z,36.50
2023-03-21T06:15:13.456Z,35.90
2023-03-21T06:17:42.477Z,35.00
2023-03-21T06:20:13.400Z,33.90
2023-03-21T06:22:42.558Z,41.80
2023-03-21T06:25:11.767Z,53.40
2023-03-21T06:27:40.955Z,39.70
2023-03-21T06:30:12.534Z,41.30
2023-03-21T06:32:41.606Z,42.90
2023-03-21T06:35:11.181Z,40.10
2023-03-21T06:37:40.364Z,41.50
2023-03-21T06:40:11.657Z,47.40
2023-03-21T06:42:40.833Z,49.70
2023-03-21T06:45:11.434Z,40.40
2023-03-21T06:47:40.567Z,44.60
2023-03-21T06:50:11.761Z,36.10
2023-03-21T06:52:40.656Z,41.80
2023-03-21T06:55:10.812Z,38.10
2023-03-21T06:57:39.810Z,41.50
2023-03-21T07:00:12.835Z,40.00
2023-03-21T07:02:41.748Z,44.50
2023-03-21T07:05:11.467Z,45.40
2023-03-21T07:07:40.793Z,45.10
2023-03-21T07:10:12.028Z,39.40
2023-03-21T07:12:40.927Z,38.70
2023-03-21T07:15:12.023Z,36.70
2023-03-21T07:17:41.066Z,39.40
2023-03-21T07:20:13.089Z,37.40
2023-03-21T07:22:42.143Z,41.20
2023-03-21T07:25:12.141Z,39.60
2023-03-21T07:27:42.094Z,38.90
2023-03-21T07:30:13.586Z,40.80
2023-03-21T07:32:42.938Z,46.80
2023-03-21T07:35:15.730Z,42.70
2023-03-21T07:37:45.381Z,47.50
2023-03-21T07:40:15.984Z,42.10
2023-03-21T07:42:45.011Z,46.00
2023-03-21T07:45:15.543Z,45.70
2023-03-21T07:47:44.878Z,40.50
2023-03-21T07:50:14.017Z,47.00
2023-03-21T07:52:43.143Z,49.90
2023-03-21T07:55:12.750Z,45.70
2023-03-21T07:57:41.780Z,50.50
2023-03-21T08:00:13.561Z,50.80
2023-03-21T08:02:42.627Z,53.30
2023-03-21T08:05:11.976Z,43.10
2023-03-21T08:07:40.954Z,45.20
2023-03-21T08:10:12.472Z,40.20
2023-03-21T08:12:41.635Z,50.30
2023-03-21T08:15:12.815Z,43.30
2023-03-21T08:17:45.206Z,39.90
2023-03-21T08:20:16.666Z,43.70
2023-03-21T08:22:45.705Z,41.20
2023-03-21T08:25:17.512Z,35.00
2023-03-21T08:27:48.026Z,31.30
2023-03-21T08:30:19.779Z,31.80
2023-03-21T08:32:49.065Z,36.90
2023-03-21T08:35:20.036Z,31.30
2023-03-21T08:37:49.235Z,32.10
2023-03-21T08:40:20.316Z,31.60
2023-03-21T08:42:49.324Z,32.80
2023-03-21T08:45:19.151Z,38.10
2023-03-21T08:47:48.288Z,32.70
2023-03-21T08:50:19.751Z,29.30
2023-03-21T08:52:49.562Z,32.50
2023-03-21T08:55:19.781Z,32.70
2023-03-21T08:57:48.988Z,29.80
2023-03-21T09:00:20.263Z,33.80
2023-03-21T09:02:52.274Z,31.90
2023-03-21T09:05:22.580Z,32.20
2023-03-21T09:07:52.531Z,35.40
2023-03-21T09:10:23.559Z,35.90
2023-03-21T09:12:54.528Z,33.40
2023-03-21T09:15:24.693Z,33.20
2023-03-21T09:17:55.652Z,32.80
2023-03-21T09:20:30.156Z,22.90
2023-03-21T09:22:59.601Z,14.20
2023-03-21T09:25:30.652Z,10.70
2023-03-21T09:27:59.947Z,9.00
2023-03-21T09:30:29.852Z,11.20
2023-03-21T09:33:00.450Z,10.10
2023-03-21T09:35:30.640Z,10.90
2023-03-21T09:38:00.216Z,8.80
2023-03-21T09:40:47.006Z,8.50
2023-03-21T09:43:32.816Z,10.10
2023-03-21T09:46:09.468Z,8.20
2023-03-21T09:48:54.381Z,8.70
2023-03-21T09:51:29.877Z,9.40
2023-03-21T09:54:04.782Z,6.80
2023-03-21T09:56:34.751Z,6.90
2023-03-21T09:59:06.835Z,7.10
2023-03-21T10:01:41.809Z,10.30
2023-03-21T10:04:16.469Z,6.50
2023-03-21T10:09:21.250Z,6.70
2023-03-21T10:11:54.507Z,7.30
2023-03-21T10:14:29.887Z,7.60
2023-03-21T10:17:01.485Z,8.80
2023-03-21T10:19:30.756Z,8.30
2023-03-21T10:22:02.678Z,9.90
2023-03-21T10:24:35.314Z,10.10
2023-03-21T10:27:05.505Z,10.80
2023-03-21T10:29:42.124Z,8.40
2023-03-21T10:32:13.759Z,8.40
2023-03-21T10:34:45.793Z,9.50
2023-03-21T10:37:16.974Z,7.80
2023-03-21T10:39:49.326Z,6.30
2023-03-21T10:42:23.493Z,6.80
2023-03-21T10:44:57.002Z,5.60
2023-03-21T10:47:28.183Z,5.10
2023-03-21T10:50:10.093Z,6.60
2023-03-21T10:52:45.596Z,5.20
2023-03-21T10:55:23.205Z,5.90
2023-03-21T10:57:59.785Z,7.30
2023-03-21T11:00:36.266Z,5.40
2023-03-21T11:03:07.041Z,7.60
2023-03-21T11:05:39.028Z,6.30
2023-03-21T11:08:13.212Z,7.00
2023-03-21T11:10:54.490Z,7.60
2023-03-21T11:13:33.094Z,9.00
2023-03-21T11:16:08.516Z,7.90
2023-03-21T11:18:42.406Z,9.40
2023-03-21T11:21:14.474Z,8.70
2023-03-21T11:23:47.585Z,12.00
2023-03-21T11:26:23.872Z,11.40
2023-03-21T11:28:54.194Z,11.10
2023-03-21T11:31:38.288Z,11.00
2023-03-21T11:34:09.838Z,9.60
2023-03-21T11:36:39.600Z,10.60
2023-03-21T11:39:33.216Z,9.10
2023-03-21T11:42:02.637Z,8.30
2023-03-21T11:44:35.282Z,8.80
2023-03-21T11:47:04.394Z,10.40
2023-03-21T11:49:33.416Z,15.30
2023-03-21T11:52:21.337Z,12.50
2023-03-21T11:55:23.584Z,11.10
2023-03-21T11:58:13.952Z,10.70
2023-03-21T12:00:54.363Z,10.00
2023-03-21T12:03:47.420Z,9.80
2023-03-21T12:06:25.557Z,10.40
2023-03-21T12:09:06.233Z,10.90
2023-03-21T12:11:49.070Z,10.10
2023-03-21T12:14:28.065Z,12.30
2023-03-21T12:17:10.768Z,11.30
2023-03-21T12:20:01.616Z,11.70
2023-03-21T12:22:39.962Z,13.00
2023-03-21T12:25:14.057Z,12.00
2023-03-21T12:27:52.166Z,10.30
2023-03-21T12:30:39.539Z,10.50
2023-03-21T12:33:25.134Z,11.30
2023-03-21T12:36:10.741Z,11.10
2023-03-21T12:38:44.503Z,12.30
2023-03-21T12:41:27.112Z,11.40
2023-03-21T12:44:03.188Z,11.90
2023-03-21T12:46:36.780Z,10.70
2023-03-21T12:49:14.331Z,11.50
2023-03-21T12:51:47.862Z,11.20
2023-03-21T12:54:25.671Z,10.60
2023-03-21T12:56:59.571Z,11.10
2023-03-21T12:59:36.621Z,9.70
2023-03-21T13:02:19.041Z,11.90
2023-03-21T13:04:59.497Z,10.10
2023-03-21T13:07:33.264Z,9.20
2023-03-21T13:10:05.182Z,12.50
2023-03-21T13:12:48.761Z,10.90
2023-03-21T13:15:44.482Z,8.80
2023-03-21T13:18:21.194Z,11.80
2023-03-21T13:20:53.833Z,12.50
2023-03-21T13:23:25.501Z,11.90
2023-03-21T13:25:57.920Z,12.10
2023-03-21T13:28:31.665Z,11.50
2023-03-21T13:31:21.827Z,12.00
2023-03-21T13:33:53.537Z,11.00
2023-03-21T13:36:26.928Z,10.10
2023-03-21T13:39:01.818Z,12.90
2023-03-21T13:41:35.466Z,11.80
2023-03-21T13:44:23.463Z,11.00
2023-03-21T13:47:02.497Z,12.00
2023-03-21T13:49:34.872Z,11.80
2023-03-21T13:52:27.329Z,12.10
2023-03-21T13:54:57.371Z,9.70
2023-03-21T13:57:39.507Z,10.30
2023-03-21T14:00:29.429Z,11.90
2023-03-21T14:03:05.982Z,12.00
2023-03-21T14:05:36.825Z,11.80
2023-03-21T14:08:24.752Z,11.20
2023-03-21T14:11:06.727Z,11.70
2023-03-21T14:13:48.343Z,10.30
2023-03-21T14:16:21.966Z,10.20
2023-03-21T14:18:56.019Z,9.80
2023-03-21T14:21:29.073Z,10.80
2023-03-21T14:24:02.742Z,10.30
2023-03-21T14:26:34.657Z,10.70
2023-03-21T14:29:09.583Z,10.20
2023-03-21T14:31:47.430Z,9.90
2023-03-21T14:34:17.990Z,10.30
2023-03-21T14:36:56.893Z,12.00
2023-03-21T14:39:30.203Z,13.00
2023-03-21T14:42:05.560Z,13.20
2023-03-21T14:44:53.990Z,10.90
2023-03-21T14:47:27.066Z,12.00
2023-03-21T14:49:56.714Z,10.90
2023-03-21T14:52:30.751Z,12.20
2023-03-21T14:55:01.936Z,13.60
2023-03-21T14:57:33.459Z,12.70
2023-03-21T15:00:11.930Z,12.60
2023-03-21T15:02:43.507Z,12.90
2023-03-21T15:05:19.749Z,14.80
2023-03-21T15:07:57.188Z,13.50
2023-03-21T15:10:30.221Z,11.40
2023-03-21T15:13:01.830Z,11.00
2023-03-21T15:15:32.340Z,13.00
2023-03-21T15:18:07.881Z,13.40
2023-03-21T15:20:39.916Z,11.20
2023-03-21T15:23:15.690Z,10.30
2023-03-21T15:25:45.691Z,12.70
2023-03-21T15:28:17.006Z,11.60
2023-03-21T15:30:51.431Z,10.40
2023-03-21T15:33:21.327Z,10.90
2023-03-21T15:35:55.103Z,10.90
2023-03-21T15:38:30.225Z,13.20
2023-03-21T15:41:25.951Z,12.60
2023-03-21T15:44:05.466Z,12.20
2023-03-21T15:46:42.391Z,12.60
2023-03-21T15:49:24.885Z,15.40
2023-03-21T15:51:57.251Z,12.10
2023-03-21T15:54:29.756Z,13.70
2023-03-21T15:57:04.138Z,15.10
2023-03-21T15:59:36.498Z,16.70
2023-03-21T16:02:11.321Z,15.90
2023-03-21T16:04:58.397Z,12.60
2023-03-21T16:07:27.981Z,13.90
2023-03-21T16:10:01.723Z,16.40
2023-03-21T16:12:30.772Z,13.10
2023-03-21T16:14:59.646Z,14.90
2023-03-21T16:17:36.308Z,17.30
2023-03-21T16:20:14.069Z,21.20
2023-03-21T16:22:43.108Z,22.50
2023-03-21T16:25:12.338Z,22.80
2023-03-21T16:27:42.141Z,23.30
2023-03-21T16:30:15.188Z,19.40
2023-03-21T16:32:44.028Z,27.90
2023-03-21T16:35:13.583Z,28.90
2023-03-21T16:37:43.062Z,34.70
2023-03-21T16:40:23.270Z,30.40
2023-03-21T16:42:52.300Z,34.90
2023-03-21T16:45:21.380Z,47.60
2023-03-21T16:47:51.375Z,52.70
2023-03-21T16:50:31.224Z,51.50
2023-03-21T16:53:00.773Z,45.60
2023-03-21T16:55:32.650Z,49.00
2023-03-21T16:58:02.551Z,44.70
2023-03-21T17:00:32.543Z,44.60
2023-03-21T17:03:03.349Z,52.40
2023-03-21T17:05:32.435Z,63.00
2023-03-21T17:08:02.597Z,70.00
2023-03-21T17:10:34.163Z,66.20
2023-03-21T17:13:03.537Z,81.20
2023-03-21T17:15:33.003Z,60.70
2023-03-21T17:18:02.287Z,51.30
2023-03-21T17:20:33.909Z,48.30
2023-03-21T17:23:03.184Z,45.00
2023-03-21T17:25:32.474Z,45.90
2023-03-21T17:28:02.205Z,48.00
2023-03-21T17:30:37.444Z,44.00
2023-03-21T17:33:07.728Z,55.00
2023-03-21T17:35:38.505Z,60.40
2023-03-21T17:38:12.947Z,54.50
2023-03-21T17:40:43.068Z,53.10
2023-03-21T17:43:17.840Z,47.50
2023-03-21T17:45:49.610Z,49.10
2023-03-21T17:48:21.704Z,48.50
2023-03-21T17:50:50.941Z,45.70
2023-03-21T17:53:20.409Z,46.00
2023-03-21T17:55:51.894Z,52.30
2023-03-21T17:58:22.142Z,49.80
2023-03-21T18:00:51.003Z,46.20
2023-03-21T18:03:22.967Z,44.60
2023-03-21T18:05:55.493Z,50.80
2023-03-21T18:08:24.545Z,59.40
2023-03-21T18:10:54.760Z,78.50
2023-03-21T18:13:24.009Z,85.30
2023-03-21T18:15:53.729Z,85.70
2023-03-21T18:18:22.694Z,89.60
2023-03-21T18:20:54.467Z,80.00
2023-03-21T18:23:24.173Z,77.70
2023-03-21T18:25:57.991Z,76.40
2023-03-21T18:28:28.025Z,98.90
2023-03-21T18:31:12.683Z,116.60
2023-03-21T18:33:48.097Z,143.40
2023-03-21T18:36:25.357Z,163.60
2023-03-21T18:39:05.184Z,154.20
2023-03-21T18:41:36.488Z,143.90
2023-03-21T18:44:23.626Z,149.60
2023-03-21T18:46:55.425Z,135.50
2023-03-21T18:50:05.857Z,133.50
2023-03-21T18:52:18.984Z,128.80
2023-03-21T18:54:49.470Z,132.40
2023-03-21T18:57:38.698Z,133.90
2023-03-21T19:00:13.891Z,142.30
2023-03-21T19:03:13.066Z,137.00
2023-03-21T19:05:50.981Z,132.00
2023-03-21T19:08:23.797Z,129.20
2023-03-21T19:10:59.574Z,125.90
2023-03-21T19:13:33.668Z,131.60
2023-03-21T19:16:05.669Z,125.30
2023-03-21T19:18:53.430Z,124.20
2023-03-21T19:21:27.724Z,135.00
2023-03-21T19:24:29.316Z,141.00
2023-03-21T19:26:58.658Z,177.90
2023-03-21T19:29:29.752Z,162.50
2023-03-21T19:32:04.457Z,155.90
2023-03-21T19:37:05.958Z,138.70
2023-03-21T19:39:39.190Z,143.10
2023-03-21T19:42:22.712Z,115.40
2023-03-21T19:44:54.358Z,93.40
2023-03-21T19:47:32.828Z,92.60
2023-03-21T19:50:43.960Z,97.00
2023-03-21T19:52:59.058Z,92.50
2023-03-21T19:55:35.402Z,94.50
2023-03-21T19:58:09.375Z,111.90
2023-03-21T20:00:41.146Z,121.80
2023-03-21T20:03:22.443Z,122.00
2023-03-21T20:06:03.318Z,109.30
2023-03-21T20:08:58.031Z,108.00
2023-03-21T20:11:28.875Z,111.50
2023-03-21T20:14:03.485Z,113.00
2023-03-21T20:19:09.232Z,100.90
2023-03-21T20:21:48.528Z,95.20
2023-03-21T20:24:27.282Z,84.40
2023-03-21T20:27:00.331Z,88.90
2023-03-21T20:32:21.657Z,73.70
2023-03-21T20:35:02.645Z,64.60
2023-03-21T20:37:45.992Z,69.70
2023-03-21T20:40:18.375Z,63.40
2023-03-21T20:42:50.691Z,76.20
2023-03-21T20:45:22.040Z,68.40
2023-03-21T20:47:58.103Z,78.40
2023-03-21T20:50:33.083Z,74.70
2023-03-21T20:53:07.279Z,81.80
2023-03-21T20:55:39.932Z,74.70
2023-03-21T20:58:36.738Z,92.80
2023-03-21T21:01:04.874Z,81.50
2023-03-21T21:03:39.261Z,87.40
2023-03-21T21:06:15.126Z,79.90
2023-03-21T21:08:47.703Z,88.60
2023-03-21T21:12:04.742Z,97.50
2023-03-21T21:14:08.605Z,105.50
2023-03-21T21:16:41.329Z,121.80
2023-03-21T21:19:10.357Z,115.40
2023-03-21T21:21:39.478Z,121.30
2023-03-21T21:24:10.983Z,98.90
2023-03-21T21:26:45.901Z,102.70
2023-03-21T21:29:16.776Z,93.30
2023-03-21T21:31:48.483Z,81.50
2023-03-21T21:34:18.427Z,75.20
2023-03-21T21:36:47.651Z,70.40
2023-03-21T21:39:16.602Z,73.10
2023-03-21T21:41:45.571Z,69.80
2023-03-21T21:44:14.804Z,76.90
2023-03-21T21:46:43.631Z,75.70
2023-03-21T21:49:12.415Z,73.00
2023-03-21T21:51:41.466Z,69.80
2023-03-21T21:54:10.832Z,81.40
2023-03-21T21:56:39.602Z,83.00
2023-03-21T21:59:08.615Z,75.00
2023-03-21T22:01:38.227Z,79.90
2023-03-21T22:04:07.903Z,70.40
2023-03-21T22:06:36.738Z,79.40
2023-03-21T22:09:06.570Z,83.30
2023-03-21T22:11:35.485Z,72.00
2023-03-21T22:14:04.474Z,82.30
2023-03-21T22:16:33.547Z,73.60
2023-03-21T22:19:02.845Z,80.00
2023-03-21T22:21:31.680Z,85.40
2023-03-21T22:24:01.092Z,108.20
2023-03-21T22:26:30.093Z,100.50
2023-03-21T22:28:59.561Z,95.60
2023-03-21T22:31:28.600Z,99.90
2023-03-21T22:33:57.536Z,93.40
2023-03-21T22:36:26.778Z,90.50
2023-03-21T22:38:56.042Z,82.80
2023-03-21T22:41:24.965Z,90.30
2023-03-21T22:43:53.963Z,84.70
2023-03-21T22:46:23.163Z,78.50
2023-03-21T22:48:52.028Z,77.60
2023-03-21T22:51:21.473Z,74.00
2023-03-21T22:53:50.344Z,70.30
2023-03-21T22:56:19.191Z,74.30
2023-03-21T22:58:48.147Z,73.50
2023-03-21T23:01:17.034Z,72.50
2023-03-21T23:03:46.022Z,60.90
2023-03-21T23:06:14.974Z,63.10
2023-03-21T23:08:43.826Z,65.80
2023-03-21T23:11:12.791Z,66.10
2023-03-21T23:13:41.719Z,60.00
2023-03-21T23:16:11.319Z,58.10
2023-03-21T23:18:40.364Z,57.60
2023-03-21T23:21:12.774Z,56.20
2023-03-21T23:23:43.448Z,65.30
2023-03-21T23:26:12.818Z,60.40
2023-03-21T23:28:42.103Z,57.70
2023-03-21T23:31:13.254Z,53.80
2023-03-21T23:33:42.435Z,55.80
2023-03-21T23:36:14.219Z,62.30
2023-03-21T23:38:43.978Z,60.40
2023-03-21T23:41:14.775Z,67.40
2023-03-21T23:43:44.103Z,58.10
2023-03-21T23:46:13.871Z,58.30
2023-03-21T23:48:43.461Z,64.00
2023-03-21T23:51:14.468Z,63.60
2023-03-21T23:53:44.532Z,56.40
2023-03-21T23:56:15.692Z,56.30
2023-03-21T23:58:44.615Z,51.50
